Portada
METAR-TAF:

METAR-TAF

Aeropuertos :

Seyresse

Dax, Francia

latitud: 43-41N, longitud: 001-04W, altitud: 32 m

Observación

El informe se hizo hace 25 minutos, a las 19:00 UTC
Viento 7 kt del oeste-noroeste, variando entre oeste y norte-noroeste
Temperatura 21°C
Humedad 69%
Presión 1013 hPa
Visibilidad 10 km o más

METAR: LFBY 201900Z AUTO 30007KT 260V340 9999 // ////// 21/15 Q1013

Hora: 21:25 (19:25 UTC)

Pronóstico

El informe se hizo hace 11 horas y 25 minutos, a las 08:00 UTC
Pronóstico válido del 20 a las 09 UTC al 20 a las 18 UTC
Viento 3 kt con dirección variable con ráfagas de 21 kt
Visibilidad 10 km o más
sin nubes por debajo de 1500 m y sin presencia de cumulonimbus.
Evolucionando progresivamente
del 20 a las 10 UTC al 20 a las 12 UTC
Viento 10 kt del oeste-suroeste con ráfagas de 20 kt

TAF: LFBY 200800Z 2009/2018 VRB03G21KT CAVOK BECMG 2010/2012 24010G20KT

Observaciones y pronósticos meteorológicos de más de 4000 aeropuertos (mensajes METAR y TAF).

Los puntos amarillos y rojos representan las estaciones disponibles.

Ponga el ratón en el punto deseado para ver el nombre de la estación.

Haga clic para ver las observaciones y los pronósticos meteorológicos.

Para cambiar el mapa : haga clic en los botones verdes con una cruz de color negro para hacer un zoom, en el botón verde con un guión para alejar o en las flechas verdes para mapas adyacentes.


METAR-TAF: